createdAt,value
2018-04-29T00:02:13.250Z,31.03
2018-04-29T00:04:40.827Z,35.20
2018-04-29T00:07:08.615Z,37.17
2018-04-29T00:09:36.775Z,34.00
2018-04-29T00:12:05.087Z,28.47
2018-04-29T00:14:32.683Z,35.53
2018-04-29T00:17:00.240Z,31.53
2018-04-29T00:19:27.783Z,37.60
2018-04-29T00:21:55.656Z,28.43
2018-04-29T00:24:23.317Z,33.33
2018-04-29T00:26:50.873Z,32.63
2018-04-29T00:29:18.489Z,29.50
2018-04-29T00:31:46.925Z,30.30
2018-04-29T00:34:14.584Z,32.30
2018-04-29T00:36:42.180Z,30.53
2018-04-29T00:39:09.741Z,28.30
2018-04-29T00:41:38.286Z,26.77
2018-04-29T00:44:06.083Z,24.23
2018-04-29T00:46:34.401Z,25.90
2018-04-29T00:49:02.160Z,32.20
2018-04-29T00:51:41.601Z,29.13
2018-04-29T00:54:09.164Z,34.60
2018-04-29T00:56:36.848Z,39.40
2018-04-29T00:59:05.377Z,31.00
2018-04-29T01:01:32.891Z,33.10
2018-04-29T01:04:00.714Z,33.33
2018-04-29T01:06:28.316Z,26.30
2018-04-29T01:08:55.867Z,28.90
2018-04-29T01:11:23.631Z,26.17
2018-04-29T01:13:51.232Z,26.97
2018-04-29T01:16:18.914Z,26.77
2018-04-29T01:18:46.483Z,27.20
2018-04-29T01:21:14.311Z,28.93
2018-04-29T01:23:42.628Z,27.40
2018-04-29T01:26:10.173Z,27.73
2018-04-29T01:28:37.920Z,25.93
2018-04-29T01:31:05.535Z,23.97
2018-04-29T01:33:33.076Z,27.77
2018-04-29T01:36:01.040Z,27.67
2018-04-29T01:38:28.721Z,21.00
2018-04-29T01:40:56.267Z,23.63
2018-04-29T01:43:24.100Z,22.30
2018-04-29T01:45:51.852Z,24.20
2018-04-29T01:48:19.444Z,22.63
2018-04-29T01:50:47.225Z,24.20
2018-04-29T01:53:15.229Z,22.57
2018-04-29T01:55:42.777Z,38.20
2018-04-29T01:58:11.177Z,25.40
2018-04-29T02:00:39.099Z,24.73
2018-04-29T02:03:06.644Z,25.30
2018-04-29T02:05:34.623Z,25.90
2018-04-29T02:08:02.169Z,25.97
2018-04-29T02:10:29.906Z,26.97
2018-04-29T02:12:57.496Z,24.47
2018-04-29T02:15:25.040Z,25.53
2018-04-29T02:17:52.876Z,29.33
2018-04-29T02:20:20.466Z,28.97
2018-04-29T02:22:48.015Z,32.40
2018-04-29T02:25:15.560Z,31.70
2018-04-29T02:27:43.344Z,28.93
2018-04-29T02:30:11.206Z,27.07
2018-04-29T02:32:38.761Z,26.73
2018-04-29T02:35:06.345Z,21.83
2018-04-29T02:37:34.020Z,24.90
2018-04-29T02:40:02.343Z,24.27
2018-04-29T02:42:30.144Z,24.47
2018-04-29T02:44:57.829Z,29.40
2018-04-29T02:47:25.616Z,24.90
2018-04-29T02:49:53.253Z,24.47
2018-04-29T02:52:20.800Z,20.57
2018-04-29T02:54:49.120Z,22.10
2018-04-29T02:57:17.120Z,25.17
2018-04-29T02:59:44.670Z,19.43
2018-04-29T03:02:12.616Z,21.87
2018-04-29T03:04:40.216Z,22.80
2018-04-29T03:07:07.764Z,24.90
2018-04-29T03:09:35.313Z,19.63
2018-04-29T03:12:02.901Z,19.40
2018-04-29T03:14:30.447Z,23.97
2018-04-29T03:16:57.988Z,21.27
2018-04-29T03:19:25.673Z,20.00
2018-04-29T03:21:53.224Z,21.17
2018-04-29T03:24:21.203Z,20.37
2018-04-29T03:26:48.920Z,21.83
2018-04-29T03:29:16.464Z,23.37
2018-04-29T03:31:44.014Z,27.30
2018-04-29T03:34:12.363Z,27.33
2018-04-29T03:36:39.912Z,34.37
2018-04-29T03:39:07.523Z,28.20
2018-04-29T03:41:35.317Z,25.43
2018-04-29T03:44:02.891Z,23.33
2018-04-29T03:46:30.716Z,21.50
2018-04-29T03:48:58.297Z,23.13
2018-04-29T03:51:25.856Z,26.03
2018-04-29T03:53:53.492Z,23.90
2018-04-29T03:56:21.282Z,24.20
2018-04-29T03:59:00.696Z,25.47
2018-04-29T04:01:40.018Z,23.40
2018-04-29T04:04:07.712Z,22.97
2018-04-29T04:06:36.036Z,23.60
2018-04-29T04:09:03.889Z,22.33
2018-04-29T04:11:31.447Z,24.47
2018-04-29T04:13:59.160Z,22.17
2018-04-29T04:16:26.875Z,21.43
2018-04-29T04:18:54.526Z,24.17
2018-04-29T04:21:22.336Z,22.93
2018-04-29T04:23:50.104Z,20.00
2018-04-29T04:26:18.540Z,23.23
2018-04-29T04:28:46.104Z,22.77
2018-04-29T04:31:13.949Z,21.63
2018-04-29T04:33:41.501Z,21.63
2018-04-29T04:36:09.052Z,22.57
2018-04-29T04:38:36.654Z,24.67
2018-04-29T04:41:05.088Z,24.57
2018-04-29T04:43:32.641Z,24.50
2018-04-29T04:46:00.219Z,25.43
2018-04-29T04:48:27.790Z,21.60
2018-04-29T04:50:57.191Z,24.60
2018-04-29T04:53:24.783Z,25.30
2018-04-29T04:55:52.345Z,22.87
2018-04-29T04:58:19.900Z,28.47
2018-04-29T05:00:47.975Z,27.83
2018-04-29T05:03:15.588Z,26.77
2018-04-29T05:05:43.317Z,28.90
2018-04-29T05:08:10.931Z,28.87
2018-04-29T05:10:40.017Z,30.13
2018-04-29T05:13:07.580Z,31.30
2018-04-29T05:15:35.166Z,27.90
2018-04-29T05:18:02.728Z,26.50
2018-04-29T05:20:31.045Z,29.03
2018-04-29T05:22:58.813Z,27.00
2018-04-29T05:25:26.384Z,23.33
2018-04-29T05:27:53.941Z,28.97
2018-04-29T05:30:21.542Z,26.17
2018-04-29T05:32:49.273Z,23.30
2018-04-29T05:35:16.830Z,26.83
2018-04-29T05:37:44.657Z,25.40
2018-04-29T05:40:12.209Z,27.07
2018-04-29T05:42:39.756Z,27.80
2018-04-29T05:45:07.349Z,26.47
2018-04-29T05:47:34.989Z,26.97
2018-04-29T05:50:02.540Z,27.73
2018-04-29T05:52:30.122Z,18.63
2018-04-29T05:54:57.677Z,15.70
2018-04-29T05:57:25.232Z,21.60
2018-04-29T05:59:52.820Z,22.57
2018-04-29T06:02:20.732Z,23.83
2018-04-29T06:04:48.281Z,18.87
2018-04-29T06:07:17.028Z,16.10
2018-04-29T06:09:44.806Z,20.00
2018-04-29T06:12:12.409Z,19.00
2018-04-29T06:14:40.140Z,19.70
2018-04-29T06:17:08.457Z,19.50
2018-04-29T06:19:36.008Z,20.60
2018-04-29T06:22:03.783Z,17.73
2018-04-29T06:24:31.332Z,19.60
2018-04-29T06:26:58.888Z,23.87
2018-04-29T06:29:26.635Z,23.90
2018-04-29T06:31:54.233Z,19.30
2018-04-29T06:34:21.878Z,22.33
2018-04-29T06:36:49.470Z,16.17
2018-04-29T06:39:17.028Z,17.73
2018-04-29T06:41:44.580Z,17.70
2018-04-29T06:44:12.444Z,24.50
2018-04-29T06:46:40.002Z,22.10
2018-04-29T06:49:07.557Z,21.20
2018-04-29T06:51:35.431Z,19.23
2018-04-29T06:54:03.186Z,20.30
2018-04-29T06:56:30.746Z,16.17
2018-04-29T06:58:58.486Z,21.57
2018-04-29T07:01:26.055Z,15.43
2018-04-29T07:03:53.609Z,17.70
2018-04-29T07:06:21.285Z,19.73
2018-04-29T07:08:49.253Z,15.47
2018-04-29T07:11:17.115Z,14.27
2018-04-29T07:13:44.713Z,21.23
2018-04-29T07:16:13.039Z,18.50
2018-04-29T07:18:40.929Z,17.07
2018-04-29T07:21:08.602Z,13.53
2018-04-29T07:23:36.158Z,16.50
2018-04-29T07:26:05.763Z,14.30
2018-04-29T07:28:33.348Z,15.83
2018-04-29T07:31:00.913Z,20.53
2018-04-29T07:33:28.757Z,15.33
2018-04-29T07:35:56.355Z,18.90
2018-04-29T07:38:24.012Z,20.57
2018-04-29T07:40:51.568Z,16.83
2018-04-29T07:43:19.393Z,14.37
2018-04-29T07:45:47.046Z,15.00
2018-04-29T07:48:14.620Z,18.97
2018-04-29T07:50:43.792Z,16.37
2018-04-29T07:53:11.695Z,17.03
2018-04-29T07:55:40.383Z,14.13
2018-04-29T07:58:09.135Z,20.83
2018-04-29T08:00:37.114Z,13.10
2018-04-29T08:03:04.713Z,14.73
2018-04-29T08:05:32.599Z,16.20
2018-04-29T08:08:00.440Z,17.87
2018-04-29T08:10:28.123Z,12.53
2018-04-29T08:12:55.749Z,17.00
2018-04-29T08:15:23.431Z,14.33
2018-04-29T08:17:51.353Z,20.88
2018-04-29T08:20:19.212Z,10.03
2018-04-29T08:22:47.118Z,19.20
2018-04-29T08:25:15.179Z,11.37
2018-04-29T08:27:43.559Z,14.23
2018-04-29T08:30:11.411Z,13.20
2018-04-29T08:32:38.912Z,14.25
2018-04-29T08:35:06.554Z,12.32
2018-04-29T08:37:34.125Z,11.38
2018-04-29T08:40:01.733Z,18.05
2018-04-29T08:42:29.581Z,13.38
2018-04-29T08:44:57.185Z,13.05
2018-04-29T08:47:25.134Z,16.37
2018-04-29T08:49:52.822Z,14.93
2018-04-29T08:52:20.404Z,19.55
2018-04-29T08:54:48.235Z,13.25
2018-04-29T08:57:15.960Z,11.63
2018-04-29T08:59:43.538Z,12.65
2018-04-29T09:02:11.690Z,14.30
2018-04-29T09:04:39.545Z,13.57
2018-04-29T09:07:07.444Z,14.15
2018-04-29T09:09:35.097Z,13.50
2018-04-29T09:12:03.165Z,15.50
2018-04-29T09:14:30.808Z,11.40
2018-04-29T09:16:58.704Z,10.13
2018-04-29T09:19:26.563Z,13.15
2018-04-29T09:21:54.391Z,11.60
2018-04-29T09:24:22.294Z,11.68
2018-04-29T09:26:50.162Z,9.23
2018-04-29T09:29:17.884Z,8.32
2018-04-29T09:31:45.633Z,11.00
2018-04-29T09:34:13.252Z,11.52
2018-04-29T09:36:41.380Z,11.00
2018-04-29T09:39:09.056Z,10.70
2018-04-29T09:41:36.912Z,12.00
2018-04-29T09:44:04.473Z,12.68
2018-04-29T09:46:32.040Z,11.43
2018-04-29T09:48:59.754Z,11.45
2018-04-29T09:51:28.371Z,7.00
2018-04-29T09:53:56.315Z,11.60
2018-04-29T09:56:24.451Z,6.85
2018-04-29T09:58:52.401Z,7.82
2018-04-29T10:01:26.035Z,9.82
2018-04-29T10:03:54.470Z,8.43
2018-04-29T10:06:22.049Z,11.12
2018-04-29T10:08:50.688Z,7.53
2018-04-29T10:11:18.563Z,6.30
2018-04-29T10:13:46.636Z,10.88
2018-04-29T10:16:14.418Z,8.70
2018-04-29T10:18:42.043Z,6.00
2018-04-29T10:21:09.583Z,11.82
2018-04-29T10:23:37.621Z,6.32
2018-04-29T10:26:05.178Z,6.37
2018-04-29T10:28:34.417Z,6.97
2018-04-29T10:31:01.999Z,8.93
2018-04-29T10:33:29.552Z,6.05
2018-04-29T10:35:57.303Z,5.00
2018-04-29T10:38:25.272Z,12.52
2018-04-29T10:40:52.863Z,8.50
2018-04-29T10:43:20.621Z,6.72
2018-04-29T10:45:48.243Z,13.85
2018-04-29T10:48:15.910Z,8.23
2018-04-29T10:50:43.903Z,6.57
2018-04-29T10:53:11.797Z,8.52
2018-04-29T10:55:39.357Z,6.70
2018-04-29T10:58:07.013Z,8.77
2018-04-29T11:00:34.622Z,8.65
2018-04-29T11:03:02.411Z,11.60
2018-04-29T11:05:29.974Z,9.50
2018-04-29T11:07:57.594Z,8.25
2018-04-29T11:10:26.176Z,9.80
2018-04-29T11:12:53.725Z,8.90
2018-04-29T11:15:21.567Z,8.98
2018-04-29T11:17:49.416Z,6.50
2018-04-29T11:20:17.064Z,7.55
2018-04-29T11:22:44.649Z,8.63
2018-04-29T11:25:12.381Z,10.15
2018-04-29T11:27:40.881Z,12.27
2018-04-29T11:30:08.659Z,12.88
2018-04-29T11:32:36.595Z,8.50
2018-04-29T11:35:04.161Z,8.43
2018-04-29T11:37:32.202Z,11.73
2018-04-29T11:40:00.343Z,9.98
2018-04-29T11:42:27.901Z,7.53
2018-04-29T11:44:55.818Z,13.18
2018-04-29T11:47:23.369Z,9.60
2018-04-29T11:49:50.978Z,10.88
2018-04-29T11:52:18.747Z,7.87
2018-04-29T11:54:46.309Z,7.75
2018-04-29T11:57:14.354Z,6.40
2018-04-29T11:59:42.186Z,8.75
2018-04-29T12:02:10.367Z,8.90
2018-04-29T12:04:38.253Z,6.03
2018-04-29T12:07:06.116Z,11.27
2018-04-29T12:09:33.891Z,9.05
2018-04-29T12:12:01.568Z,6.62
2018-04-29T12:14:29.355Z,8.77
2018-04-29T12:16:56.934Z,8.43
2018-04-29T12:19:24.670Z,5.35
2018-04-29T12:21:53.368Z,11.73
2018-04-29T12:24:21.275Z,6.75
2018-04-29T12:26:48.880Z,6.43
2018-04-29T12:29:17.375Z,5.78
2018-04-29T12:31:44.932Z,7.30
2018-04-29T12:34:12.840Z,9.73
2018-04-29T12:36:40.750Z,13.25
2018-04-29T12:39:09.078Z,9.43
2018-04-29T12:41:36.687Z,8.90
2018-04-29T12:44:05.435Z,7.00
2018-04-29T12:46:33.004Z,10.10
2018-04-29T12:49:01.898Z,9.73
2018-04-29T12:51:29.819Z,6.55
2018-04-29T12:53:57.391Z,6.37
2018-04-29T12:56:24.932Z,6.05
2018-04-29T12:58:52.933Z,4.22
2018-04-29T13:01:20.782Z,7.47
2018-04-29T13:03:48.412Z,7.50
2018-04-29T13:06:16.187Z,7.72
2018-04-29T13:08:44.056Z,5.15
2018-04-29T13:11:11.847Z,6.15
2018-04-29T13:13:39.719Z,4.43
2018-04-29T13:16:07.500Z,8.80
2018-04-29T13:18:35.068Z,7.37
2018-04-29T13:21:02.718Z,6.82
2018-04-29T13:23:30.441Z,8.38
2018-04-29T13:25:58.247Z,5.97
2018-04-29T13:31:00.007Z,6.40
2018-04-29T13:33:28.783Z,6.47
2018-04-29T13:35:56.476Z,8.52
2018-04-29T13:38:24.089Z,7.18
2018-04-29T13:40:52.594Z,8.50
2018-04-29T13:43:20.758Z,9.20
2018-04-29T13:45:48.573Z,6.80
2018-04-29T13:48:16.926Z,5.37
2018-04-29T13:50:44.708Z,6.43
2018-04-29T13:53:13.403Z,5.18
2018-04-29T13:55:41.340Z,7.20
2018-04-29T13:58:09.262Z,7.35
2018-04-29T14:00:36.916Z,4.68
2018-04-29T14:03:04.772Z,5.45
2018-04-29T14:05:32.427Z,6.20
2018-04-29T14:08:00.004Z,6.68
2018-04-29T14:10:28.004Z,6.62
2018-04-29T14:12:56.516Z,4.40
2018-04-29T14:15:24.632Z,5.57
2018-04-29T14:17:53.044Z,5.32
2018-04-29T14:20:21.051Z,5.53
2018-04-29T14:22:48.785Z,9.13
2018-04-29T14:25:16.573Z,5.18
2018-04-29T14:27:44.121Z,7.05
2018-04-29T14:30:12.443Z,6.37
2018-04-29T14:32:40.228Z,5.40
2018-04-29T14:35:08.248Z,7.65
2018-04-29T14:37:35.798Z,6.30
2018-04-29T14:40:04.145Z,11.02
2018-04-29T14:42:31.892Z,7.40
2018-04-29T14:44:59.756Z,6.57
2018-04-29T14:47:27.673Z,8.63
2018-04-29T14:49:55.264Z,7.90
2018-04-29T14:52:23.221Z,5.35
2018-04-29T14:54:50.804Z,8.30
2018-04-29T14:57:18.688Z,9.48
2018-04-29T14:59:46.636Z,9.60
2018-04-29T15:02:14.458Z,7.50
2018-04-29T15:04:43.282Z,7.30
2018-04-29T15:07:11.091Z,9.15
2018-04-29T15:09:38.863Z,6.95
2018-04-29T15:12:07.276Z,6.40
2018-04-29T15:14:34.913Z,9.98
2018-04-29T15:17:02.834Z,9.68
2018-04-29T15:19:50.223Z,10.75
2018-04-29T15:22:18.012Z,9.13
2018-04-29T15:24:45.730Z,10.60
2018-04-29T15:27:14.187Z,11.98
2018-04-29T15:29:42.037Z,10.80
2018-04-29T15:32:09.919Z,10.73
2018-04-29T15:34:37.587Z,12.90
2018-04-29T15:37:06.225Z,11.32
2018-04-29T15:39:33.784Z,9.27
2018-04-29T15:42:01.327Z,8.93
2018-04-29T15:44:29.005Z,8.88
2018-04-29T15:46:57.088Z,8.90
2018-04-29T15:49:24.952Z,10.35
2018-04-29T15:51:52.644Z,10.77
2018-04-29T15:54:21.278Z,8.63
2018-04-29T15:56:48.864Z,12.82
2018-04-29T15:59:16.455Z,10.68
2018-04-29T16:01:44.771Z,8.85
2018-04-29T16:04:12.636Z,13.38
2018-04-29T16:06:40.511Z,12.68
2018-04-29T16:09:08.368Z,10.15
2018-04-29T16:11:35.939Z,12.10
2018-04-29T16:14:03.962Z,11.95
2018-04-29T16:16:31.513Z,13.02
2018-04-29T16:18:59.880Z,13.13
2018-04-29T16:21:27.608Z,16.15
2018-04-29T16:23:55.242Z,14.68
2018-04-29T16:26:22.825Z,13.70
2018-04-29T16:28:50.650Z,76.97
2018-04-29T16:31:18.416Z,17.87
2018-04-29T16:33:46.513Z,9.90
2018-04-29T16:36:14.246Z,10.48
2018-04-29T16:38:42.019Z,14.48
2018-04-29T16:41:09.732Z,12.95
2018-04-29T16:43:37.404Z,12.23
2018-04-29T16:46:04.936Z,11.82
2018-04-29T16:48:32.582Z,12.75
2018-04-29T16:51:00.385Z,15.43
2018-04-29T16:53:28.753Z,12.30
2018-04-29T16:55:56.321Z,12.10
2018-04-29T16:58:24.157Z,13.48
2018-04-29T17:00:51.800Z,13.27
2018-04-29T17:03:19.955Z,9.00
2018-04-29T17:05:47.572Z,12.83
2018-04-29T17:08:15.128Z,11.97
2018-04-29T17:10:43.128Z,13.90
2018-04-29T17:13:11.514Z,13.60
2018-04-29T17:15:39.078Z,22.97
2018-04-29T17:18:06.643Z,23.77
2018-04-29T17:20:34.236Z,14.13
2018-04-29T17:23:01.794Z,13.13
2018-04-29T17:25:29.368Z,13.97
2018-04-29T17:27:56.955Z,13.97
2018-04-29T17:30:25.272Z,16.10
2018-04-29T17:32:52.864Z,12.77
2018-04-29T17:35:20.455Z,16.23
2018-04-29T17:37:48.379Z,12.83
2018-04-29T17:40:16.055Z,14.83
2018-04-29T17:42:43.645Z,14.80
2018-04-29T17:45:11.241Z,16.93
2018-04-29T17:47:38.820Z,16.33
2018-04-29T17:50:06.536Z,18.03
2018-04-29T17:52:34.153Z,16.37
2018-04-29T17:55:01.720Z,13.27
2018-04-29T17:57:29.329Z,15.43
2018-04-29T17:59:57.090Z,11.60
2018-04-29T18:02:25.088Z,18.97
2018-04-29T18:04:52.940Z,17.80
2018-04-29T18:07:20.582Z,17.63
2018-04-29T18:09:48.505Z,19.00
2018-04-29T18:12:16.089Z,20.30
2018-04-29T18:14:44.518Z,23.87
2018-04-29T18:17:12.359Z,19.43
2018-04-29T18:19:39.989Z,19.00
2018-04-29T18:22:07.816Z,23.23
2018-04-29T18:24:35.386Z,25.83
2018-04-29T18:27:03.927Z,24.17
2018-04-29T18:29:31.490Z,22.87
2018-04-29T18:31:59.128Z,27.10
2018-04-29T18:34:26.882Z,23.40
2018-04-29T18:36:54.554Z,29.60
2018-04-29T18:39:22.129Z,24.07
2018-04-29T18:41:49.777Z,27.97
2018-04-29T18:44:17.526Z,26.17
2018-04-29T18:46:45.978Z,42.40
2018-04-29T18:49:13.771Z,53.60
2018-04-29T18:51:41.620Z,57.63
2018-04-29T18:54:09.327Z,59.67
2018-04-29T18:56:37.250Z,73.87
2018-04-29T18:59:05.577Z,74.70
2018-04-29T19:01:33.170Z,65.07
2018-04-29T19:04:02.020Z,56.53
2018-04-29T19:06:29.736Z,49.00
2018-04-29T19:08:58.203Z,52.57
2018-04-29T19:11:25.866Z,50.07
2018-04-29T19:13:53.466Z,55.80
2018-04-29T19:16:21.030Z,61.43
2018-04-29T19:18:48.806Z,43.83
2018-04-29T19:21:16.383Z,40.70
2018-04-29T19:23:44.130Z,45.40
2018-04-29T19:26:11.865Z,44.17
2018-04-29T19:28:40.185Z,33.73
2018-04-29T19:31:08.919Z,43.37
2018-04-29T19:33:37.673Z,37.43
2018-04-29T19:36:06.118Z,37.93
2018-04-29T19:38:33.738Z,42.53
2018-04-29T19:41:01.329Z,32.33
2018-04-29T19:43:29.165Z,32.07
2018-04-29T19:45:56.965Z,38.60
2018-04-29T19:48:24.586Z,36.60
2018-04-29T19:50:52.698Z,38.27
2018-04-29T19:53:20.269Z,37.67
2018-04-29T19:55:47.939Z,44.53
2018-04-29T19:58:15.554Z,44.07
2018-04-29T20:00:43.149Z,41.77
2018-04-29T20:03:10.741Z,36.27
2018-04-29T20:05:39.259Z,33.33
2018-04-29T20:08:06.973Z,34.23
2018-04-29T20:10:34.593Z,31.77
2018-04-29T20:13:02.233Z,45.53
2018-04-29T20:15:29.851Z,31.20
2018-04-29T20:17:57.526Z,30.97
2018-04-29T20:20:25.103Z,30.37
2018-04-29T20:22:52.877Z,31.93
2018-04-29T20:25:20.586Z,43.93
2018-04-29T20:27:48.164Z,47.43
2018-04-29T20:30:15.737Z,38.60
2018-04-29T20:32:48.927Z,39.93
2018-04-29T20:35:17.247Z,37.73
2018-04-29T20:37:44.809Z,43.07
2018-04-29T20:40:12.947Z,39.57
2018-04-29T20:42:41.569Z,36.57
2018-04-29T20:45:09.342Z,34.03
2018-04-29T20:47:37.354Z,41.57
2018-04-29T20:50:05.669Z,37.20
2018-04-29T20:52:33.276Z,32.23
2018-04-29T20:55:01.666Z,41.90
2018-04-29T20:57:29.240Z,47.30
2018-04-29T20:59:56.801Z,34.00
2018-04-29T21:02:24.403Z,33.37
2018-04-29T21:04:52.240Z,38.50
2018-04-29T21:07:19.805Z,36.97
2018-04-29T21:09:47.452Z,37.43
2018-04-29T21:12:15.000Z,35.00
2018-04-29T21:14:42.615Z,28.37
2018-04-29T21:17:10.397Z,31.57
2018-04-29T21:19:37.951Z,53.00
2018-04-29T21:22:05.507Z,36.80
2018-04-29T21:24:33.102Z,33.27
2018-04-29T21:27:00.656Z,27.13
2018-04-29T21:29:28.216Z,28.17
2018-04-29T21:31:55.812Z,23.50
2018-04-29T21:34:23.370Z,24.23
2018-04-29T21:36:51.092Z,18.67
2018-04-29T21:39:19.239Z,22.17
2018-04-29T21:41:46.806Z,19.93
2018-04-29T21:44:14.599Z,20.27
2018-04-29T21:46:42.183Z,20.77
2018-04-29T21:49:09.733Z,20.63
2018-04-29T21:51:37.286Z,28.17
2018-04-29T21:54:04.993Z,29.73
2018-04-29T21:56:32.922Z,25.83
2018-04-29T21:59:00.489Z,28.73
2018-04-29T22:01:28.096Z,38.43
2018-04-29T22:03:55.653Z,36.67
2018-04-29T22:06:23.372Z,32.10
2018-04-29T22:08:50.951Z,30.23
2018-04-29T22:11:18.509Z,28.97
2018-04-29T22:13:46.153Z,29.77
2018-04-29T22:16:13.753Z,27.17
2018-04-29T22:18:42.312Z,27.13
2018-04-29T22:21:09.887Z,30.23
2018-04-29T22:23:38.354Z,28.60
2018-04-29T22:26:05.913Z,30.87
2018-04-29T22:28:35.170Z,28.10
2018-04-29T22:31:02.882Z,29.10
2018-04-29T22:33:30.639Z,26.50
2018-04-29T22:35:59.490Z,27.97
2018-04-29T22:38:27.213Z,24.70
2018-04-29T22:40:55.743Z,27.70
2018-04-29T22:43:23.615Z,26.20
2018-04-29T22:45:51.228Z,24.70
2018-04-29T22:48:18.806Z,28.43
2018-04-29T22:50:46.866Z,24.87
2018-04-29T22:53:14.720Z,24.80
2018-04-29T22:55:43.044Z,22.40
2018-04-29T22:58:10.595Z,21.50
2018-04-29T23:00:38.179Z,26.83
2018-04-29T23:03:07.232Z,20.93
2018-04-29T23:05:34.781Z,25.80
2018-04-29T23:08:02.526Z,20.23
2018-04-29T23:10:30.847Z,21.87
2018-04-29T23:12:58.396Z,21.63
2018-04-29T23:15:25.980Z,21.87
2018-04-29T23:17:53.923Z,19.30
2018-04-29T23:20:21.556Z,18.53
2018-04-29T23:22:49.245Z,20.93
2018-04-29T23:25:17.112Z,19.33
2018-04-29T23:27:44.688Z,25.27
2018-04-29T23:30:12.283Z,23.97
2018-04-29T23:32:40.600Z,25.47
2018-04-29T23:35:08.161Z,20.53
2018-04-29T23:37:35.905Z,22.73
2018-04-29T23:40:03.456Z,23.63
2018-04-29T23:42:31.488Z,20.60
2018-04-29T23:44:59.077Z,21.13
2018-04-29T23:47:27.423Z,20.33
2018-04-29T23:49:54.964Z,17.90
2018-04-29T23:52:22.629Z,18.80
2018-04-29T23:54:50.184Z,19.10
2018-04-29T23:57:17.742Z,19.93
2018-04-29T23:59:45.333Z,21.87
